createdAt,value
2023-05-01T00:01:24.302Z,99596.09
2023-05-01T00:04:17.727Z,99593.41
2023-05-01T00:07:19.941Z,99591.91
2023-05-01T00:10:03.825Z,99586.25
2023-05-01T00:12:52.584Z,99583.91
2023-05-01T00:15:35.922Z,99586.69
2023-05-01T00:18:35.781Z,99575.66
2023-05-01T00:21:18.794Z,99579.09
2023-05-01T00:24:09.299Z,99571.41
2023-05-01T00:26:52.822Z,99570.59
2023-05-01T00:29:48.414Z,99567.16
2023-05-01T00:32:41.472Z,99563.91
2023-05-01T00:35:17.262Z,99561.41
2023-05-01T00:37:57.535Z,99562.72
2023-05-01T00:40:45.628Z,99558.97
2023-05-01T00:43:18.039Z,99553.47
2023-05-01T00:45:50.537Z,99544.63
2023-05-01T00:48:28.299Z,99547.38
2023-05-01T00:51:10.854Z,99546.88
2023-05-01T00:54:01.196Z,99539.38
2023-05-01T00:56:59.307Z,99539.31
2023-05-01T00:59:44.817Z,99539.19
2023-05-01T01:02:18.636Z,99532.56
2023-05-01T01:04:58.603Z,99532.44
2023-05-01T01:08:18.235Z,99525.44
2023-05-01T01:11:04.319Z,99517.78
2023-05-01T01:14:06.870Z,99519.22
2023-05-01T01:17:02.986Z,99508.88
2023-05-01T01:20:30.480Z,99515.88
2023-05-01T01:23:56.612Z,99504.84
2023-05-01T01:27:18.022Z,99505.72
2023-05-01T01:30:53.021Z,99504.97
2023-05-01T01:34:02.229Z,99507.69
2023-05-01T01:36:45.642Z,99510.22
2023-05-01T01:39:48.903Z,99507.69
2023-05-01T01:42:39.586Z,99507.69
2023-05-01T01:45:25.641Z,99506.22
2023-05-01T01:48:08.897Z,99500.19
2023-05-01T01:50:55.672Z,99497.53
2023-05-01T01:53:53.838Z,99502.22
2023-05-01T01:56:35.441Z,99497.28
2023-05-01T01:59:08.877Z,99500.88
2023-05-01T02:01:47.068Z,99491.56
2023-05-01T02:04:25.448Z,99486.69
2023-05-01T02:07:01.788Z,99491.34
2023-05-01T02:09:55.372Z,99484.59
2023-05-01T02:12:29.248Z,99489.78
2023-05-01T02:15:24.163Z,99486.09
2023-05-01T02:18:09.390Z,99483.59
2023-05-01T02:20:58.570Z,99476.09
2023-05-01T02:24:24.139Z,99487.69
2023-05-01T02:27:18.877Z,99480.84
2023-05-01T02:30:05.893Z,99485.19
2023-05-01T02:32:43.834Z,99485.34
2023-05-01T02:35:20.649Z,99483.09
2023-05-01T02:37:54.773Z,99487.44
2023-05-01T02:40:58.519Z,99484.97
2023-05-01T02:43:49.420Z,99482.25
2023-05-01T02:46:35.232Z,99471.75
2023-05-01T02:49:22.927Z,99475.09
2023-05-01T02:52:10.230Z,99472.91
2023-05-01T02:54:51.557Z,99472.25
2023-05-01T02:57:42.782Z,99467.34
2023-05-01T03:00:21.113Z,99459.66
2023-05-01T03:02:51.850Z,99463.81
2023-05-01T03:05:38.584Z,99455.06
2023-05-01T03:08:46.404Z,99460.34
2023-05-01T03:11:18.528Z,99465.50
2023-05-01T03:14:12.970Z,99459.03
2023-05-01T03:16:59.268Z,99461.19
2023-05-01T03:19:41.195Z,99452.34
2023-05-01T03:22:21.628Z,99445.16
2023-05-01T03:25:09.734Z,99446.69
2023-05-01T03:28:04.429Z,99443.84
2023-05-01T03:31:05.350Z,99445.53
2023-05-01T03:33:46.662Z,99444.53
2023-05-01T03:36:28.736Z,99442.72
2023-05-01T03:39:10.511Z,99446.16
2023-05-01T03:42:08.683Z,99447.78
2023-05-01T03:44:59.396Z,99439.88
2023-05-01T03:47:44.191Z,99438.88
2023-05-01T03:50:23.235Z,99440.53
2023-05-01T03:52:55.170Z,99440.53
2023-05-01T03:55:42.939Z,99423.19
2023-05-01T03:58:17.324Z,99435.34
2023-05-01T04:01:01.187Z,99424.94
2023-05-01T04:03:48.902Z,99422.16
2023-05-01T04:06:37.693Z,99417.00
2023-05-01T04:09:24.584Z,99411.50
2023-05-01T04:12:11.553Z,99417.41
2023-05-01T04:14:58.458Z,99421.75
2023-05-01T04:17:38.937Z,99419.81
2023-05-01T04:20:42.024Z,99416.47
2023-05-01T04:23:25.568Z,99419.75
2023-05-01T04:26:24.507Z,99411.91
2023-05-01T04:29:05.969Z,99414.50
2023-05-01T04:31:38.862Z,99414.66
2023-05-01T04:34:10.864Z,99417.22
2023-05-01T04:36:49.967Z,99412.31
2023-05-01T04:39:22.827Z,99414.16
2023-05-01T04:42:00.910Z,99416.84
2023-05-01T04:44:43.415Z,99415.91
2023-05-01T04:47:14.437Z,99414.09
2023-05-01T04:50:02.287Z,99422.31
2023-05-01T04:52:36.686Z,99417.72
2023-05-01T04:55:09.775Z,99417.47
2023-05-01T04:58:05.558Z,99407.72
2023-05-01T05:00:42.782Z,99413.25
2023-05-01T05:03:32.337Z,99420.66
2023-05-01T05:06:11.903Z,99408.13
2023-05-01T05:09:09.837Z,99402.50
2023-05-01T05:11:50.607Z,99408.06
2023-05-01T05:14:33.617Z,99406.69
2023-05-01T05:17:23.852Z,99405.41
2023-05-01T05:20:14.405Z,99408.38
2023-05-01T05:22:52.995Z,99409.66
2023-05-01T05:25:54.392Z,99407.63
2023-05-01T05:28:27.113Z,99406.59
2023-05-01T05:31:07.309Z,99408.28
2023-05-01T05:33:39.268Z,99405.63
2023-05-01T05:36:12.071Z,99400.44
2023-05-01T05:38:46.152Z,99406.00
2023-05-01T05:41:39.255Z,99404.53
2023-05-01T05:44:49.255Z,99397.97
2023-05-01T05:47:22.312Z,99396.34
2023-05-01T05:49:58.036Z,99397.47
2023-05-01T05:52:29.161Z,99400.66
2023-05-01T05:55:11.575Z,99397.72
2023-05-01T05:57:48.774Z,99398.16
2023-05-01T06:00:33.872Z,99397.34
2023-05-01T06:03:22.629Z,99397.41
2023-05-01T06:05:57.865Z,99395.69
2023-05-01T06:08:50.701Z,99393.97
2023-05-01T06:11:29.034Z,99390.03
2023-05-01T06:14:04.478Z,99383.69
2023-05-01T06:16:52.970Z,99392.22
2023-05-01T06:19:38.715Z,99385.19
2023-05-01T06:22:21.947Z,99381.66
2023-05-01T06:25:18.340Z,99382.16
2023-05-01T06:28:08.173Z,99382.44
2023-05-01T06:30:44.535Z,99371.38
2023-05-01T06:33:29.636Z,99371.50
2023-05-01T06:36:17.904Z,99375.16
2023-05-01T06:39:20.840Z,99376.66
2023-05-01T06:41:53.238Z,99372.97
2023-05-01T06:44:38.576Z,99368.50
2023-05-01T06:47:14.786Z,99373.84
2023-05-01T06:49:53.620Z,99377.28
2023-05-01T06:52:46.804Z,99382.31
2023-05-01T06:55:35.860Z,99379.00
2023-05-01T06:58:24.141Z,99377.47
2023-05-01T07:01:16.274Z,99383.97
2023-05-01T07:04:21.563Z,99379.22
2023-05-01T07:06:56.352Z,99380.56
2023-05-01T07:09:39.767Z,99382.34
2023-05-01T07:12:09.895Z,99375.22
2023-05-01T07:15:05.060Z,99382.09
2023-05-01T07:17:52.777Z,99378.31
2023-05-01T07:20:37.121Z,99384.50
2023-05-01T07:23:13.968Z,99385.44
2023-05-01T07:25:56.403Z,99382.25
2023-05-01T07:28:27.093Z,99379.72
2023-05-01T07:31:23.775Z,99379.47
2023-05-01T07:33:57.316Z,99371.59
2023-05-01T07:36:50.466Z,99377.50
2023-05-01T07:39:23.240Z,99383.16
2023-05-01T07:42:04.748Z,99373.66
2023-05-01T07:45:01.077Z,99379.56
2023-05-01T07:47:32.478Z,99380.06
2023-05-01T07:50:29.226Z,99374.56
2023-05-01T07:53:33.394Z,99378.13
2023-05-01T07:56:17.743Z,99380.06
2023-05-01T07:58:58.898Z,99369.34
2023-05-01T08:01:34.406Z,99368.53
2023-05-01T08:04:09.400Z,99376.47
2023-05-01T08:06:56.681Z,99381.97
2023-05-01T08:09:40.532Z,99377.22
2023-05-01T08:12:23.058Z,99367.28
2023-05-01T08:15:20.630Z,99383.75
2023-05-01T08:18:12.556Z,99382.19
2023-05-01T08:20:45.037Z,99382.19
2023-05-01T08:23:25.695Z,99377.94
2023-05-01T08:26:22.672Z,99381.28
2023-05-01T08:29:04.598Z,99377.94
2023-05-01T08:31:39.820Z,99385.28
2023-05-01T08:34:27.920Z,99375.72
2023-05-01T08:37:05.829Z,99379.03
2023-05-01T08:39:43.057Z,99380.66
2023-05-01T08:42:25.139Z,99378.16
2023-05-01T08:45:01.308Z,99378.16
2023-05-01T08:47:52.248Z,99380.31
2023-05-01T08:50:24.455Z,99386.25
2023-05-01T08:53:06.890Z,99378.88
2023-05-01T08:55:46.054Z,99383.09
2023-05-01T08:58:37.481Z,99370.94
2023-05-01T09:01:21.618Z,99372.56
2023-05-01T09:04:09.149Z,99371.41
2023-05-01T09:06:40.111Z,99376.50
2023-05-01T09:09:11.568Z,99373.22
2023-05-01T09:11:59.830Z,99379.91
2023-05-01T09:14:56.963Z,99368.19
2023-05-01T09:17:32.815Z,99373.81
2023-05-01T09:20:26.877Z,99374.81
2023-05-01T09:23:03.169Z,99368.97
2023-05-01T09:25:45.559Z,99364.31
2023-05-01T09:28:30.875Z,99365.72
2023-05-01T09:31:29.728Z,99364.94
2023-05-01T09:34:10.268Z,99369.06
2023-05-01T09:36:49.399Z,99365.19
2023-05-01T09:39:34.798Z,99363.25
2023-05-01T09:42:13.089Z,99360.81
2023-05-01T09:45:19.086Z,99358.63
2023-05-01T09:48:14.677Z,99370.91
2023-05-01T09:51:08.174Z,99362.63
2023-05-01T09:53:43.504Z,99368.56
2023-05-01T09:56:34.467Z,99374.50
2023-05-01T09:59:24.816Z,99362.34
2023-05-01T10:02:37.932Z,99369.91
2023-05-01T10:05:22.161Z,99369.34
2023-05-01T10:08:03.955Z,99364.47
2023-05-01T10:10:52.779Z,99370.38
2023-05-01T10:13:40.149Z,99363.53
2023-05-01T10:16:33.350Z,99374.94
2023-05-01T10:19:23.954Z,99370.41
2023-05-01T10:22:12.566Z,99370.00
2023-05-01T10:24:54.034Z,99371.50
2023-05-01T10:27:42.723Z,99369.09
2023-05-01T10:30:38.590Z,99368.81
2023-05-01T10:33:31.110Z,99370.41
2023-05-01T10:36:36.929Z,99364.78
2023-05-01T10:39:37.030Z,99359.91
2023-05-01T10:42:26.606Z,99359.78
2023-05-01T10:45:34.606Z,99357.31
2023-05-01T10:48:12.254Z,99357.47
2023-05-01T10:51:14.724Z,99352.41
2023-05-01T10:54:34.606Z,99358.34
2023-05-01T10:58:05.157Z,99360.16
2023-05-01T11:00:46.572Z,99346.22
2023-05-01T11:03:40.569Z,99344.28
2023-05-01T11:06:16.309Z,99350.91
2023-05-01T11:09:05.230Z,99349.41
2023-05-01T11:11:54.453Z,99349.13
2023-05-01T11:14:29.526Z,99342.47
2023-05-01T11:18:01.425Z,99348.41
2023-05-01T11:20:51.747Z,99342.88
2023-05-01T11:23:26.040Z,99341.00
2023-05-01T11:26:08.504Z,99332.03
2023-05-01T11:29:11.228Z,99341.44
2023-05-01T11:31:58.551Z,99333.81
2023-05-01T11:34:38.250Z,99337.78
2023-05-01T11:37:42.330Z,99332.09
2023-05-01T11:40:31.292Z,99320.19
2023-05-01T11:43:10.080Z,99326.59
2023-05-01T11:45:58.363Z,99323.69
2023-05-01T11:48:42.940Z,99330.03
2023-05-01T11:51:23.473Z,99324.84
2023-05-01T11:54:04.684Z,99332.22
2023-05-01T11:56:45.168Z,99321.72
2023-05-01T11:59:29.939Z,99315.72
2023-05-01T12:02:26.066Z,99323.09
2023-05-01T12:05:16.677Z,99311.66
2023-05-01T12:07:52.822Z,99307.88
2023-05-01T12:11:08.796Z,99309.41
2023-05-01T12:13:48.519Z,99302.78
2023-05-01T12:16:19.433Z,99300.44
2023-05-01T12:19:24.368Z,99297.47
2023-05-01T12:22:09.370Z,99295.88
2023-05-01T12:24:52.648Z,99302.03
2023-05-01T12:27:33.005Z,99291.66
2023-05-01T12:30:20.487Z,99301.28
2023-05-01T12:33:11.750Z,99298.44
2023-05-01T12:36:28.362Z,99301.28
2023-05-01T12:39:42.878Z,99296.94
2023-05-01T12:42:43.014Z,99292.69
2023-05-01T12:45:32.341Z,99300.84
2023-05-01T12:48:21.205Z,99297.56
2023-05-01T12:51:28.967Z,99283.16
2023-05-01T12:54:03.776Z,99284.28
2023-05-01T12:56:34.359Z,99286.34
2023-05-01T12:59:24.783Z,99274.81
2023-05-01T13:02:05.040Z,99280.69
2023-05-01T13:04:48.028Z,99279.75
2023-05-01T13:07:54.384Z,99275.13
2023-05-01T13:10:42.018Z,99271.63
2023-05-01T13:13:15.218Z,99260.41
2023-05-01T13:16:11.241Z,99258.19
2023-05-01T13:18:55.313Z,99271.06
2023-05-01T13:21:56.106Z,99276.13
2023-05-01T13:24:42.253Z,99273.78
2023-05-01T13:27:18.163Z,99278.78
2023-05-01T13:29:58.409Z,99276.44
2023-05-01T13:33:00.752Z,99280.09
2023-05-01T13:35:40.909Z,99273.22
2023-05-01T13:38:15.363Z,99273.69
2023-05-01T13:41:17.781Z,99271.84
2023-05-01T13:44:15.341Z,99266.19
2023-05-01T13:47:14.041Z,99278.09
2023-05-01T13:50:02.559Z,99278.28
2023-05-01T13:52:45.762Z,99271.53
2023-05-01T13:55:48.189Z,99275.44
2023-05-01T13:58:22.249Z,99280.97
2023-05-01T14:01:19.035Z,99266.72
2023-05-01T14:03:57.493Z,99273.25
2023-05-01T14:06:42.674Z,99268.66
2023-05-01T14:09:23.371Z,99257.28
2023-05-01T14:11:59.184Z,99254.22
2023-05-01T14:15:32.180Z,99249.69
2023-05-01T14:18:14.588Z,99246.00
2023-05-01T14:21:10.262Z,99248.13
2023-05-01T14:23:43.841Z,99248.63
2023-05-01T14:26:35.283Z,99249.94
2023-05-01T14:29:27.522Z,99244.84
2023-05-01T14:32:10.581Z,99243.44
2023-05-01T14:34:53.005Z,99236.56
2023-05-01T14:37:38.964Z,99234.59
2023-05-01T14:40:21.040Z,99240.31
2023-05-01T14:43:07.927Z,99237.22
2023-05-01T14:45:46.574Z,99242.19
2023-05-01T14:48:43.406Z,99236.59
2023-05-01T14:51:49.290Z,99238.25
2023-05-01T14:54:33.555Z,99236.59
2023-05-01T14:57:24.593Z,99240.19
2023-05-01T15:00:05.494Z,99235.59
2023-05-01T15:02:46.947Z,99241.69
2023-05-01T15:06:01.686Z,99241.16
2023-05-01T15:08:36.312Z,99237.88
2023-05-01T15:11:26.169Z,99237.91
2023-05-01T15:14:10.346Z,99240.72
2023-05-01T15:17:14.265Z,99251.44
2023-05-01T15:19:49.641Z,99245.00
2023-05-01T15:22:31.652Z,99242.56
2023-05-01T15:25:31.175Z,99229.38
2023-05-01T15:28:29.753Z,99242.88
2023-05-01T15:31:13.685Z,99246.19
2023-05-01T15:34:04.472Z,99239.59
2023-05-01T15:36:56.678Z,99236.28
2023-05-01T15:39:28.741Z,99231.97
2023-05-01T15:42:07.692Z,99229.31
2023-05-01T15:44:43.214Z,99227.94
2023-05-01T15:47:40.083Z,99231.44
2023-05-01T15:50:23.984Z,99229.06
2023-05-01T15:53:16.843Z,99238.53
2023-05-01T15:55:57.799Z,99239.25
2023-05-01T15:58:31.803Z,99234.59
2023-05-01T16:01:02.804Z,99237.75
2023-05-01T16:03:37.496Z,99231.50
2023-05-01T16:06:42.886Z,99243.75
2023-05-01T16:09:32.839Z,99242.66
2023-05-01T16:12:19.520Z,99244.38
2023-05-01T16:15:24.636Z,99239.59
2023-05-01T16:18:27.948Z,99239.13
2023-05-01T16:21:07.706Z,99237.66
2023-05-01T16:23:50.100Z,99243.13
2023-05-01T16:26:28.470Z,99246.81
2023-05-01T16:29:03.417Z,99246.28
2023-05-01T16:31:54.331Z,99259.53
2023-05-01T16:34:45.333Z,99257.97
2023-05-01T16:37:31.645Z,99260.66
2023-05-01T16:40:09.753Z,99262.78
2023-05-01T16:43:01.046Z,99275.38
2023-05-01T16:46:18.362Z,99275.28
2023-05-01T16:49:09.529Z,99280.66
2023-05-01T16:51:43.319Z,99279.75
2023-05-01T16:54:37.456Z,99294.44
2023-05-01T16:57:12.166Z,99285.34
2023-05-01T17:00:11.798Z,99294.03
2023-05-01T17:03:05.289Z,99294.03
2023-05-01T17:05:48.550Z,99297.78
2023-05-01T17:08:21.742Z,99313.63
2023-05-01T17:11:03.825Z,99300.09
2023-05-01T17:13:39.734Z,99297.31
2023-05-01T17:16:13.456Z,99312.81
2023-05-01T17:19:09.309Z,99314.50
2023-05-01T17:22:03.351Z,99313.50
2023-05-01T17:25:08.368Z,99311.41
2023-05-01T17:28:01.889Z,99317.56
2023-05-01T17:30:45.033Z,99324.44
2023-05-01T17:33:38.125Z,99319.50
2023-05-01T17:36:28.216Z,99323.75
2023-05-01T17:39:15.120Z,99325.28
2023-05-01T17:41:46.746Z,99329.09
2023-05-01T17:44:35.486Z,99335.50
2023-05-01T17:47:16.349Z,99340.03
2023-05-01T17:49:54.767Z,99339.31
2023-05-01T17:52:56.857Z,99335.28
2023-05-01T17:55:43.999Z,99339.22
2023-05-01T17:58:31.829Z,99345.00
2023-05-01T18:01:10.877Z,99344.13
2023-05-01T18:04:10.612Z,99346.25
2023-05-01T18:06:58.393Z,99351.59
2023-05-01T18:09:46.566Z,99364.38
2023-05-01T18:12:20.421Z,99368.31
2023-05-01T18:14:57.512Z,99371.34
2023-05-01T18:17:55.298Z,99377.06
2023-05-01T18:20:38.311Z,99382.78
2023-05-01T18:23:41.369Z,99387.31
2023-05-01T18:26:22.498Z,99388.75
2023-05-01T18:29:01.114Z,99395.50
2023-05-01T18:31:41.345Z,99400.50
2023-05-01T18:34:14.013Z,99395.22
2023-05-01T18:36:55.128Z,99397.00
2023-05-01T18:39:40.015Z,99402.09
2023-05-01T18:42:30.732Z,99399.56
2023-05-01T18:45:17.966Z,99407.25
2023-05-01T18:47:53.247Z,99408.06
2023-05-01T18:51:00.724Z,99412.06
2023-05-01T18:53:56.836Z,99425.75
2023-05-01T18:57:17.137Z,99428.19
2023-05-01T19:00:22.521Z,99439.56
2023-05-01T19:03:14.305Z,99440.38
2023-05-01T19:05:52.096Z,99440.84
2023-05-01T19:08:31.785Z,99449.88
2023-05-01T19:11:08.452Z,99449.44
2023-05-01T19:13:48.050Z,99450.63
2023-05-01T19:16:48.352Z,99465.31
2023-05-01T19:19:41.649Z,99465.66
2023-05-01T19:22:24.450Z,99467.66
2023-05-01T19:25:08.551Z,99461.25
2023-05-01T19:27:46.328Z,99467.50
2023-05-01T19:30:24.140Z,99476.47
2023-05-01T19:33:20.019Z,99478.25
2023-05-01T19:36:08.550Z,99480.72
2023-05-01T19:38:42.331Z,99488.84
2023-05-01T19:41:15.278Z,99501.19
2023-05-01T19:43:56.266Z,99503.22
2023-05-01T19:46:50.285Z,99504.94
2023-05-01T19:49:41.669Z,99510.53
2023-05-01T19:52:21.042Z,99510.91
2023-05-01T19:54:52.470Z,99502.78
2023-05-01T19:57:31.237Z,99506.69
2023-05-01T20:00:23.176Z,99511.91
2023-05-01T20:03:36.670Z,99509.44
2023-05-01T20:06:26.927Z,99510.47
2023-05-01T20:09:09.889Z,99518.59
2023-05-01T20:11:44.681Z,99519.66
2023-05-01T20:14:32.793Z,99522.16
2023-05-01T20:17:18.868Z,99535.66
2023-05-01T20:19:52.645Z,99544.09
2023-05-01T20:22:31.221Z,99528.97
2023-05-01T20:25:30.995Z,99527.31
2023-05-01T20:28:03.647Z,99541.25
2023-05-01T20:30:43.112Z,99554.28
2023-05-01T20:33:14.219Z,99561.69
2023-05-01T20:36:08.686Z,99559.66
2023-05-01T20:38:58.259Z,99552.16
2023-05-01T20:41:44.591Z,99558.13
2023-05-01T20:44:15.944Z,99559.91
2023-05-01T20:47:23.617Z,99555.94
2023-05-01T20:49:54.439Z,99555.94
2023-05-01T20:52:37.040Z,99552.41
2023-05-01T20:55:26.064Z,99556.06
2023-05-01T20:57:57.413Z,99557.00
2023-05-01T21:00:53.688Z,99557.41
2023-05-01T21:03:26.495Z,99559.72
2023-05-01T21:06:05.132Z,99568.50
2023-05-01T21:08:49.164Z,99567.22
2023-05-01T21:11:33.222Z,99571.81
2023-05-01T21:14:13.195Z,99575.78
2023-05-01T21:16:47.529Z,99581.81
2023-05-01T21:19:21.356Z,99574.31
2023-05-01T21:22:03.986Z,99583.44
2023-05-01T21:24:45.707Z,99584.91
2023-05-01T21:27:30.487Z,99579.56
2023-05-01T21:30:25.556Z,99584.94
2023-05-01T21:33:03.039Z,99583.06
2023-05-01T21:35:34.592Z,99587.72
2023-05-01T21:38:15.055Z,99586.47
2023-05-01T21:40:57.376Z,99577.72
2023-05-01T21:44:19.614Z,99585.22
2023-05-01T21:46:51.519Z,99591.25
2023-05-01T21:49:26.445Z,99594.75
2023-05-01T21:52:03.153Z,99585.41
2023-05-01T21:54:56.747Z,99590.59
2023-05-01T21:57:57.554Z,99592.28
2023-05-01T22:00:43.911Z,99591.31
2023-05-01T22:03:26.874Z,99585.22
2023-05-01T22:05:57.807Z,99590.19
2023-05-01T22:08:29.928Z,99595.31
2023-05-01T22:11:14.419Z,99597.78
2023-05-01T22:14:03.556Z,99592.88
2023-05-01T22:17:03.279Z,99605.47
2023-05-01T22:19:46.264Z,99602.78
2023-05-01T22:22:28.684Z,99602.88
2023-05-01T22:25:17.008Z,99612.63
2023-05-01T22:27:48.134Z,99594.53
2023-05-01T22:30:37.604Z,99617.50
2023-05-01T22:33:31.032Z,99620.09
2023-05-01T22:36:17.509Z,99625.16
2023-05-01T22:38:48.482Z,99623.44
2023-05-01T22:41:18.735Z,99623.44
2023-05-01T22:43:50.417Z,99627.50
2023-05-01T22:46:32.534Z,99628.03
2023-05-01T22:49:04.919Z,99616.50
2023-05-01T22:51:48.037Z,99622.22
2023-05-01T22:54:18.624Z,99625.34
2023-05-01T22:57:15.900Z,99629.00
2023-05-01T22:59:46.483Z,99630.97
2023-05-01T23:02:26.065Z,99636.44
2023-05-01T23:05:06.085Z,99629.50
2023-05-01T23:07:43.015Z,99641.44
2023-05-01T23:10:36.727Z,99638.94
2023-05-01T23:13:24.722Z,99636.72
2023-05-01T23:16:01.913Z,99648.44
2023-05-01T23:18:45.475Z,99643.56
2023-05-01T23:21:20.593Z,99635.03
2023-05-01T23:23:59.152Z,99632.81
2023-05-01T23:26:34.243Z,99639.78
2023-05-01T23:29:08.941Z,99636.44
2023-05-01T23:31:50.829Z,99643.31
2023-05-01T23:34:32.525Z,99638.88
2023-05-01T23:37:16.144Z,99640.59
2023-05-01T23:40:04.716Z,99642.91
2023-05-01T23:42:44.652Z,99633.69
2023-05-01T23:45:32.935Z,99639.19
2023-05-01T23:48:21.616Z,99649.41
2023-05-01T23:51:06.939Z,99644.22
2023-05-01T23:54:05.075Z,99652.09
2023-05-01T23:56:35.418Z,99643.78
2023-05-01T23:59:25.369Z,99642.38
